createdAt,value
2022-12-24T00:12:45.292Z,32.27
2022-12-24T00:27:50.002Z,30.63
2022-12-24T00:42:53.681Z,29.83
2022-12-24T00:57:57.985Z,22.27
2022-12-24T01:13:04.915Z,23.60
2022-12-24T01:28:09.100Z,21.73
2022-12-24T01:43:26.809Z,25.10
2022-12-24T01:58:32.073Z,22.87
2022-12-24T02:13:36.587Z,22.13
2022-12-24T02:28:48.709Z,22.43
2022-12-24T02:43:54.371Z,26.90
2022-12-24T02:59:15.905Z,26.50
2022-12-24T03:14:20.913Z,26.30
2022-12-24T03:29:25.654Z,20.30
2022-12-24T03:44:30.451Z,19.50
2022-12-24T03:59:35.097Z,21.23
2022-12-24T04:14:39.279Z,18.50
2022-12-24T04:29:43.696Z,21.67
2022-12-24T04:44:47.810Z,25.53
2022-12-24T04:59:51.929Z,25.67
2022-12-24T05:14:57.293Z,19.97
2022-12-24T05:30:01.264Z,20.60
2022-12-24T05:45:05.692Z,18.53
2022-12-24T06:00:09.956Z,19.77
2022-12-24T06:15:21.928Z,22.97
2022-12-24T06:30:29.696Z,31.07
2022-12-24T06:45:34.547Z,32.27
2022-12-24T07:00:39.175Z,30.20
2022-12-24T07:15:44.159Z,26.13
2022-12-24T07:30:49.415Z,26.83
2022-12-24T07:45:55.905Z,30.67
2022-12-24T08:01:00.931Z,31.57
2022-12-24T08:16:06.789Z,31.10
2022-12-24T08:31:12.259Z,28.40
2022-12-24T08:46:16.663Z,35.90
2022-12-24T09:01:21.590Z,32.77
2022-12-24T09:16:26.256Z,32.60
2022-12-24T09:31:30.495Z,39.30
2022-12-24T09:46:40.828Z,46.90
2022-12-24T10:01:45.613Z,39.67
2022-12-24T10:32:56.543Z,101.37
2022-12-24T10:48:04.559Z,91.57
2022-12-24T11:03:10.536Z,85.60
2022-12-24T11:18:16.022Z,97.10
2022-12-24T11:33:24.636Z,83.57
2022-12-24T11:48:30.421Z,91.80
2022-12-24T12:03:38.542Z,75.63
2022-12-24T12:18:45.579Z,66.70
2022-12-24T12:34:00.889Z,72.93
2022-12-24T12:49:16.665Z,100.20
2022-12-24T13:04:26.382Z,89.23
2022-12-24T13:19:48.375Z,96.77
2022-12-24T13:35:11.230Z,70.67
2022-12-24T13:50:36.288Z,74.13
2022-12-24T14:05:49.491Z,74.10
2022-12-24T14:20:56.856Z,73.87
2022-12-24T14:36:01.991Z,56.00
2022-12-24T14:51:17.067Z,26.40
2022-12-24T15:06:22.423Z,13.97
2022-12-24T15:21:31.708Z,12.00
2022-12-24T15:36:37.391Z,16.03
2022-12-24T15:51:42.228Z,23.60
2022-12-24T16:07:07.541Z,19.10
2022-12-24T16:22:31.887Z,16.67
2022-12-24T16:37:36.340Z,20.00
2022-12-24T16:52:40.203Z,15.60
2022-12-24T17:07:45.139Z,15.10
2022-12-24T17:22:49.371Z,10.00
2022-12-24T17:37:53.782Z,10.37
2022-12-24T17:52:58.667Z,10.30
2022-12-24T18:08:02.840Z,12.93
2022-12-24T18:23:07.340Z,14.03
2022-12-24T18:38:12.108Z,15.93
2022-12-24T18:53:16.333Z,9.97
2022-12-24T19:08:55.703Z,10.43
2022-12-24T19:23:48.070Z,9.63
2022-12-24T19:38:52.858Z,8.13
2022-12-24T19:53:58.083Z,9.77
2022-12-24T20:09:03.752Z,6.73
2022-12-24T20:24:08.902Z,8.33
2022-12-24T20:39:13.585Z,6.67
2022-12-24T20:54:18.034Z,12.77
2022-12-24T21:09:22.341Z,10.60
2022-12-24T21:24:26.681Z,15.20
2022-12-24T21:39:30.925Z,16.30
2022-12-24T21:54:35.338Z,10.13
2022-12-24T22:09:59.333Z,8.33
2022-12-24T22:25:04.995Z,4.33
2022-12-24T22:40:09.919Z,5.33
2022-12-24T22:55:13.772Z,6.70
2022-12-24T23:10:18.269Z,6.90
2022-12-24T23:25:22.547Z,7.37
2022-12-24T23:40:26.868Z,8.27
2022-12-24T23:55:31.160Z,5.60
